createdAt,value
2022-11-03T00:00:04.923Z,6.34
2022-11-03T00:01:03.746Z,6.34
2022-11-03T00:02:03.885Z,6.30
2022-11-03T00:03:04.090Z,6.17
2022-11-03T00:04:03.691Z,6.15
2022-11-03T00:05:03.678Z,6.18
2022-11-03T00:06:03.734Z,6.19
2022-11-03T00:07:03.650Z,6.28
2022-11-03T00:08:03.682Z,6.28
2022-11-03T00:09:03.704Z,6.15
2022-11-03T00:10:03.674Z,6.09
2022-11-03T00:11:03.687Z,6.04
2022-11-03T00:12:03.617Z,6.03
2022-11-03T00:13:03.977Z,6.03
2022-11-03T00:14:03.614Z,6.21
2022-11-03T00:15:03.572Z,6.15
2022-11-03T00:16:03.572Z,6.18
2022-11-03T00:17:03.559Z,6.09
2022-11-03T00:18:03.556Z,6.09
2022-11-03T00:19:03.550Z,6.14
2022-11-03T00:20:03.540Z,6.14
2022-11-03T00:21:03.539Z,6.09
2022-11-03T00:22:03.528Z,6.12
2022-11-03T00:23:03.834Z,6.04
2022-11-03T00:24:03.488Z,6.01
2022-11-03T00:25:03.478Z,6.01
2022-11-03T00:26:03.479Z,6.03
2022-11-03T00:27:03.480Z,6.04
2022-11-03T00:29:04.466Z,5.89
2022-11-03T00:30:03.419Z,5.86
2022-11-03T00:31:03.424Z,5.86
2022-11-03T00:32:03.421Z,5.89
2022-11-03T00:33:03.594Z,6.00
2022-11-03T00:34:03.412Z,5.89
2022-11-03T00:35:03.383Z,5.78
2022-11-03T00:36:03.387Z,5.82
2022-11-03T00:37:03.406Z,5.81
2022-11-03T00:38:03.408Z,5.82
2022-11-03T00:39:03.369Z,5.83
2022-11-03T00:40:03.348Z,5.93
2022-11-03T00:41:03.324Z,5.90
2022-11-03T00:42:03.327Z,5.93
2022-11-03T00:43:03.701Z,5.90
2022-11-03T00:44:03.300Z,5.97
2022-11-03T00:45:03.301Z,5.90
2022-11-03T00:46:03.275Z,5.89
2022-11-03T00:47:03.353Z,6.03
2022-11-03T00:48:03.255Z,5.91
2022-11-03T00:49:03.242Z,6.00
2022-11-03T00:50:03.233Z,6.00
2022-11-03T00:51:03.229Z,6.06
2022-11-03T00:52:03.268Z,6.09
2022-11-03T00:53:03.478Z,6.03
2022-11-03T00:54:03.193Z,6.11
2022-11-03T00:55:03.187Z,6.15
2022-11-03T00:56:03.170Z,6.14
2022-11-03T00:57:03.192Z,6.18
2022-11-03T00:58:03.158Z,6.11
2022-11-03T00:59:03.152Z,6.15
2022-11-03T01:00:03.151Z,6.11
2022-11-03T01:01:03.265Z,6.11
2022-11-03T01:02:03.257Z,6.12
2022-11-03T01:03:03.367Z,6.06
2022-11-03T01:04:03.134Z,6.06
2022-11-03T01:05:03.092Z,6.14
2022-11-03T01:06:03.084Z,6.08
2022-11-03T01:07:03.090Z,6.09
2022-11-03T01:08:03.078Z,6.08
2022-11-03T01:09:03.082Z,6.08
2022-11-03T01:10:03.043Z,6.18
2022-11-03T01:11:03.047Z,6.04
2022-11-03T01:12:03.038Z,5.97
2022-11-03T01:13:03.162Z,5.94
2022-11-03T01:14:03.001Z,5.94
2022-11-03T01:15:04.033Z,5.97
2022-11-03T01:16:02.993Z,5.83
2022-11-03T01:17:02.983Z,5.94
2022-11-03T01:18:03.021Z,5.83
2022-11-03T01:19:02.967Z,5.89
2022-11-03T01:20:02.962Z,5.81
2022-11-03T01:21:02.934Z,5.89
2022-11-03T01:22:06.411Z,5.89
2022-11-03T01:23:03.101Z,5.90
2022-11-03T01:24:02.908Z,5.96
2022-11-03T01:25:02.919Z,5.94
2022-11-03T01:26:02.890Z,6.00
2022-11-03T01:27:02.890Z,5.93
2022-11-03T01:28:05.855Z,5.96
2022-11-03T01:29:02.903Z,6.09
2022-11-03T01:30:02.876Z,6.01
2022-11-03T01:31:02.836Z,6.01
2022-11-03T01:32:02.844Z,6.09
2022-11-03T01:33:02.943Z,6.00
2022-11-03T01:34:02.810Z,5.99
2022-11-03T01:35:02.799Z,5.85
2022-11-03T01:36:02.786Z,5.91
2022-11-03T01:37:02.762Z,5.96
2022-11-03T01:38:02.807Z,5.76
2022-11-03T01:39:03.751Z,5.75
2022-11-03T01:40:02.750Z,5.71
2022-11-03T01:41:02.734Z,5.71
2022-11-03T01:42:02.728Z,5.60
2022-11-03T01:43:02.803Z,5.64
2022-11-03T01:44:02.760Z,5.71
2022-11-03T01:45:02.722Z,5.60
2022-11-03T01:46:02.691Z,5.63
2022-11-03T01:47:02.681Z,5.64
2022-11-03T01:48:02.717Z,5.63
2022-11-03T01:49:02.650Z,5.65
2022-11-03T01:50:03.666Z,5.56
2022-11-03T01:51:02.659Z,5.51
2022-11-03T01:52:02.637Z,5.46
2022-11-03T01:53:02.647Z,5.39
2022-11-03T01:54:02.615Z,5.43
2022-11-03T01:55:02.622Z,5.22
2022-11-03T01:56:02.588Z,5.33
2022-11-03T01:57:02.629Z,5.25
2022-11-03T01:58:02.607Z,5.25
2022-11-03T01:59:02.592Z,5.30
2022-11-03T02:00:02.621Z,5.27
2022-11-03T02:01:02.631Z,5.27
2022-11-03T02:02:02.648Z,5.33
2022-11-03T02:03:02.553Z,5.33
2022-11-03T02:04:02.559Z,5.36
2022-11-03T02:05:02.506Z,5.38
2022-11-03T02:06:02.499Z,5.36
2022-11-03T02:07:02.493Z,5.35
2022-11-03T02:08:02.540Z,5.40
2022-11-03T02:09:02.489Z,5.35
2022-11-03T02:10:02.514Z,5.24
2022-11-03T02:11:02.527Z,5.22
2022-11-03T02:12:02.439Z,5.27
2022-11-03T02:13:02.430Z,5.21
2022-11-03T02:14:02.465Z,5.21
2022-11-03T02:15:02.410Z,5.20
2022-11-03T02:16:02.399Z,5.27
2022-11-03T02:17:02.393Z,5.24
2022-11-03T02:18:02.381Z,5.22
2022-11-03T02:19:02.368Z,5.31
2022-11-03T02:20:02.359Z,5.31
2022-11-03T02:21:02.386Z,5.31
2022-11-03T02:22:02.350Z,5.46
2022-11-03T02:23:02.341Z,5.40
2022-11-03T02:24:02.330Z,5.36
2022-11-03T02:25:02.312Z,5.43
2022-11-03T02:26:02.321Z,5.28
2022-11-03T02:27:02.311Z,5.24
2022-11-03T02:28:02.280Z,5.12
2022-11-03T02:29:34.173Z,5.00
2022-11-03T02:30:02.265Z,5.00
2022-11-03T02:31:02.270Z,5.07
2022-11-03T02:32:02.240Z,5.09
2022-11-03T02:33:02.246Z,5.07
2022-11-03T02:34:02.223Z,5.00
2022-11-03T02:35:02.221Z,5.10
2022-11-03T02:36:02.226Z,5.03
2022-11-03T02:37:02.218Z,4.96
2022-11-03T02:38:02.203Z,4.99
2022-11-03T02:39:02.198Z,4.97
2022-11-03T02:40:02.173Z,4.86
2022-11-03T02:41:02.162Z,4.92
2022-11-03T02:42:02.180Z,4.94
2022-11-03T02:43:02.164Z,5.02
2022-11-03T02:44:02.148Z,4.96
2022-11-03T02:45:02.137Z,4.91
2022-11-03T02:46:02.122Z,4.89
2022-11-03T02:47:02.141Z,5.02
2022-11-03T02:48:02.088Z,5.04
2022-11-03T02:49:02.107Z,5.13
2022-11-03T02:50:02.081Z,5.12
2022-11-03T02:51:02.061Z,5.13
2022-11-03T02:52:02.049Z,5.10
2022-11-03T02:53:02.093Z,5.12
2022-11-03T02:54:02.051Z,5.12
2022-11-03T02:55:02.054Z,5.09
2022-11-03T02:56:02.012Z,5.15
2022-11-03T02:57:02.017Z,5.13
2022-11-03T02:58:02.044Z,5.22
2022-11-03T02:59:01.997Z,5.38
2022-11-03T03:00:01.989Z,5.33
2022-11-03T03:01:02.028Z,5.35
2022-11-03T03:02:02.083Z,5.40
2022-11-03T03:03:01.973Z,5.33
2022-11-03T03:04:01.958Z,5.42
2022-11-03T03:05:01.949Z,5.48
2022-11-03T03:06:01.916Z,5.51
2022-11-03T03:07:01.914Z,5.46
2022-11-03T03:08:01.890Z,5.49
2022-11-03T03:09:01.881Z,5.46
2022-11-03T03:10:01.910Z,5.58
2022-11-03T03:11:01.858Z,5.63
2022-11-03T03:12:01.878Z,5.68
2022-11-03T03:13:01.857Z,5.63
2022-11-03T03:14:01.866Z,5.76
2022-11-03T03:15:01.848Z,5.76
2022-11-03T03:16:01.865Z,5.78
2022-11-03T03:17:01.806Z,5.83
2022-11-03T03:18:01.810Z,5.82
2022-11-03T03:19:01.795Z,5.83
2022-11-03T03:20:01.815Z,5.76
2022-11-03T03:21:01.780Z,5.85
2022-11-03T03:22:01.785Z,5.91
2022-11-03T03:23:05.029Z,5.94
2022-11-03T03:24:01.745Z,5.97
2022-11-03T03:25:01.727Z,5.89
2022-11-03T03:26:01.728Z,5.89
2022-11-03T03:27:01.725Z,5.91
2022-11-03T03:28:01.718Z,5.96
2022-11-03T03:29:01.721Z,5.99
2022-11-03T03:30:01.688Z,6.04
2022-11-03T03:31:01.682Z,5.99
2022-11-03T03:32:01.703Z,6.00
2022-11-03T03:33:01.698Z,6.00
2022-11-03T03:34:04.857Z,5.99
2022-11-03T03:35:02.639Z,6.00
2022-11-03T03:36:01.699Z,5.97
2022-11-03T03:37:01.613Z,5.94
2022-11-03T03:38:01.630Z,5.99
2022-11-03T03:39:01.600Z,5.97
2022-11-03T03:40:01.587Z,5.96
2022-11-03T03:41:03.440Z,5.96
2022-11-03T03:42:01.569Z,5.99
2022-11-03T03:43:01.558Z,5.89
2022-11-03T03:44:01.575Z,6.00
2022-11-03T03:45:01.545Z,5.91
2022-11-03T03:46:01.535Z,5.93
2022-11-03T03:47:01.524Z,5.90
2022-11-03T03:48:01.512Z,5.91
2022-11-03T03:49:01.516Z,5.89
2022-11-03T03:50:01.538Z,5.86
2022-11-03T03:51:01.488Z,5.81
2022-11-03T03:52:01.482Z,5.68
2022-11-03T03:53:01.462Z,5.72
2022-11-03T03:54:01.447Z,5.72
2022-11-03T03:55:01.461Z,5.75
2022-11-03T03:56:01.421Z,5.76
2022-11-03T03:57:01.421Z,5.68
2022-11-03T03:58:01.403Z,5.78
2022-11-03T03:59:01.392Z,5.76
2022-11-03T04:00:01.400Z,5.79
2022-11-03T04:01:01.413Z,5.82
2022-11-03T04:02:01.489Z,5.96
2022-11-03T04:03:01.403Z,5.85
2022-11-03T04:04:01.378Z,5.94
2022-11-03T04:05:02.372Z,5.96
2022-11-03T04:06:01.355Z,5.94
2022-11-03T04:07:01.328Z,5.99
2022-11-03T04:08:01.324Z,5.94
2022-11-03T04:09:01.299Z,5.97
2022-11-03T04:10:01.313Z,6.04
2022-11-03T04:11:01.284Z,6.08
2022-11-03T04:12:01.282Z,6.03
2022-11-03T04:13:01.283Z,6.15
2022-11-03T04:14:01.253Z,6.18
2022-11-03T04:15:01.256Z,6.22
2022-11-03T04:16:01.253Z,6.22
2022-11-03T04:17:01.233Z,6.34
2022-11-03T04:18:01.232Z,6.18
2022-11-03T04:19:01.221Z,6.30
2022-11-03T04:20:01.188Z,6.34
2022-11-03T04:21:01.213Z,6.27
2022-11-03T04:22:01.199Z,6.34
2022-11-03T04:23:01.207Z,6.43
2022-11-03T04:24:01.173Z,6.38
2022-11-03T04:25:01.143Z,6.37
2022-11-03T04:26:01.223Z,6.38
2022-11-03T04:27:01.143Z,6.27
2022-11-03T04:28:01.135Z,6.30
2022-11-03T04:29:01.120Z,6.31
2022-11-03T04:30:01.127Z,6.31
2022-11-03T04:31:01.092Z,6.19
2022-11-03T04:32:01.088Z,6.21
2022-11-03T04:33:01.085Z,6.22
2022-11-03T04:34:01.083Z,6.12
2022-11-03T04:35:01.054Z,6.17
2022-11-03T04:36:01.038Z,6.15
2022-11-03T04:37:01.028Z,6.17
2022-11-03T04:38:01.058Z,6.08
2022-11-03T04:39:01.017Z,6.09
2022-11-03T04:40:01.009Z,6.08
2022-11-03T04:41:00.996Z,6.04
2022-11-03T04:42:01.018Z,6.03
2022-11-03T04:43:01.047Z,6.03
2022-11-03T04:44:00.975Z,5.99
2022-11-03T04:45:00.949Z,6.11
2022-11-03T04:46:00.954Z,6.01
2022-11-03T04:47:00.946Z,6.06
2022-11-03T04:48:00.923Z,6.12
2022-11-03T04:49:00.923Z,6.09
2022-11-03T04:50:00.913Z,6.09
2022-11-03T04:51:00.900Z,6.14
2022-11-03T04:52:00.919Z,6.11
2022-11-03T04:53:00.881Z,6.09
2022-11-03T04:54:00.865Z,6.11
2022-11-03T04:55:00.873Z,6.15
2022-11-03T04:56:06.117Z,6.18
2022-11-03T04:57:02.938Z,6.19
2022-11-03T04:58:00.833Z,6.06
2022-11-03T04:59:00.904Z,6.12
2022-11-03T05:00:00.807Z,6.19
2022-11-03T05:01:00.893Z,6.08
2022-11-03T05:02:00.996Z,6.12
2022-11-03T05:03:00.806Z,6.21
2022-11-03T05:04:00.794Z,6.19
2022-11-03T05:05:00.769Z,6.18
2022-11-03T05:06:00.753Z,6.33
2022-11-03T05:07:00.757Z,6.33
2022-11-03T05:08:00.746Z,6.38
2022-11-03T05:09:00.744Z,6.34
2022-11-03T05:10:00.716Z,6.25
2022-11-03T05:11:00.704Z,6.19
2022-11-03T05:12:00.727Z,6.17
2022-11-03T05:13:00.682Z,6.17
2022-11-03T05:14:00.700Z,6.06
2022-11-03T05:15:00.670Z,6.04
2022-11-03T05:16:00.665Z,6.06
2022-11-03T05:17:00.658Z,5.99
2022-11-03T05:18:00.649Z,6.01
2022-11-03T05:19:00.638Z,6.00
2022-11-03T05:20:00.618Z,6.04
2022-11-03T05:21:00.667Z,5.97
2022-11-03T05:22:00.594Z,5.96
2022-11-03T05:23:00.606Z,5.85
2022-11-03T05:24:00.690Z,5.94
2022-11-03T05:25:00.596Z,5.94
2022-11-03T05:26:00.584Z,5.82
2022-11-03T05:27:00.554Z,5.90
2022-11-03T05:28:00.542Z,5.91
2022-11-03T05:29:00.531Z,5.91
2022-11-03T05:30:01.093Z,5.97
2022-11-03T05:31:00.521Z,5.93
2022-11-03T05:32:00.542Z,5.91
2022-11-03T05:33:00.499Z,5.99
2022-11-03T05:34:00.511Z,5.97
2022-11-03T05:35:00.515Z,5.93
2022-11-03T05:36:00.474Z,5.99
2022-11-03T05:37:00.486Z,5.90
2022-11-03T05:38:00.461Z,6.01
2022-11-03T05:39:00.453Z,6.00
2022-11-03T05:40:00.447Z,6.01
2022-11-03T05:41:00.418Z,6.03
2022-11-03T05:42:00.426Z,6.04
2022-11-03T05:43:00.414Z,6.17
2022-11-03T05:44:00.393Z,6.21
2022-11-03T05:45:00.393Z,6.17
2022-11-03T05:46:00.407Z,6.11
2022-11-03T05:47:03.162Z,6.06
2022-11-03T05:48:01.350Z,6.11
2022-11-03T05:49:00.430Z,6.12
2022-11-03T05:50:00.416Z,6.11
2022-11-03T05:51:00.337Z,6.11
2022-11-03T05:52:00.857Z,6.09
2022-11-03T05:53:00.341Z,6.09
2022-11-03T05:54:00.295Z,6.06
2022-11-03T05:55:00.287Z,6.09
2022-11-03T05:56:00.267Z,6.01
2022-11-03T05:57:00.255Z,6.00
2022-11-03T05:58:00.300Z,5.99
2022-11-03T05:59:00.264Z,6.04
2022-11-03T06:00:00.266Z,6.03
2022-11-03T06:01:00.234Z,6.03
2022-11-03T06:02:00.447Z,5.99
2022-11-03T06:03:00.391Z,6.03
2022-11-03T06:04:00.189Z,5.91
2022-11-03T06:05:00.187Z,5.86
2022-11-03T06:06:00.246Z,5.97
2022-11-03T06:07:00.165Z,5.83
2022-11-03T06:08:00.161Z,5.89
2022-11-03T06:09:00.153Z,5.91
2022-11-03T06:10:00.142Z,5.85
2022-11-03T06:11:00.139Z,5.96
2022-11-03T06:12:00.109Z,5.99
2022-11-03T06:13:00.118Z,5.97
2022-11-03T06:14:00.157Z,6.03
2022-11-03T06:15:00.085Z,6.06
2022-11-03T06:16:00.083Z,6.17
2022-11-03T06:17:00.052Z,6.21
2022-11-03T06:18:00.071Z,6.28
2022-11-03T06:19:00.064Z,6.30
2022-11-03T06:20:00.048Z,6.30
2022-11-03T06:21:00.010Z,6.21
2022-11-03T06:22:00.045Z,6.28
2022-11-03T06:23:00.015Z,6.30
2022-11-03T06:24:00.004Z,6.28
2022-11-03T06:24:59.975Z,6.36
2022-11-03T06:25:59.970Z,6.30
2022-11-03T06:26:59.980Z,6.44
2022-11-03T06:27:59.949Z,6.40
2022-11-03T06:28:59.985Z,6.38
2022-11-03T06:29:59.946Z,6.41
2022-11-03T06:30:59.923Z,6.46
2022-11-03T06:31:59.911Z,6.54
2022-11-03T06:32:59.911Z,6.61
2022-11-03T06:33:59.977Z,6.52
2022-11-03T06:34:59.885Z,6.56
2022-11-03T06:35:59.889Z,6.44
2022-11-03T06:36:59.863Z,6.41
2022-11-03T06:37:59.890Z,6.40
2022-11-03T06:38:59.886Z,6.38
2022-11-03T06:39:59.843Z,6.36
2022-11-03T06:40:59.834Z,6.40
2022-11-03T06:41:59.829Z,6.41
2022-11-03T06:42:59.820Z,6.43
2022-11-03T06:43:59.814Z,6.41
2022-11-03T06:44:59.817Z,6.56
2022-11-03T06:45:59.776Z,6.61
2022-11-03T06:46:59.876Z,6.62
2022-11-03T06:47:59.772Z,6.56
2022-11-03T06:48:59.773Z,6.71
2022-11-03T06:49:59.774Z,6.59
2022-11-03T06:50:59.751Z,6.56
2022-11-03T06:51:59.729Z,6.62
2022-11-03T06:52:59.714Z,6.56
2022-11-03T06:53:59.710Z,6.67
2022-11-03T06:54:59.734Z,6.66
2022-11-03T06:55:59.708Z,6.76
2022-11-03T06:56:59.682Z,6.76
2022-11-03T06:57:59.700Z,6.67
2022-11-03T06:58:59.693Z,6.77
2022-11-03T07:00:19.939Z,6.79
2022-11-03T07:01:03.709Z,6.77
2022-11-03T07:02:00.707Z,6.74
2022-11-03T07:02:59.630Z,6.77
2022-11-03T07:03:59.634Z,6.91
2022-11-03T07:04:59.602Z,6.80
2022-11-03T07:05:59.596Z,6.71
2022-11-03T07:06:59.585Z,6.67
2022-11-03T07:07:59.631Z,6.79
2022-11-03T07:08:59.560Z,6.77
2022-11-03T07:09:59.580Z,6.79
2022-11-03T07:10:59.545Z,6.70
2022-11-03T07:11:59.546Z,6.81
2022-11-03T07:13:03.013Z,6.64
2022-11-03T07:14:00.537Z,6.77
2022-11-03T07:14:59.565Z,6.69
2022-11-03T07:15:59.498Z,6.66
2022-11-03T07:16:59.496Z,6.77
2022-11-03T07:17:59.471Z,6.84
2022-11-03T07:18:59.587Z,6.81
2022-11-03T07:19:59.507Z,6.74
2022-11-03T07:20:59.460Z,6.70
2022-11-03T07:21:59.463Z,6.73
2022-11-03T07:22:59.445Z,6.80
2022-11-03T07:23:59.412Z,6.85
2022-11-03T07:24:59.415Z,6.79
2022-11-03T07:25:59.416Z,6.92
2022-11-03T07:26:59.446Z,6.88
2022-11-03T07:27:59.402Z,6.95
2022-11-03T07:28:59.373Z,6.94
2022-11-03T07:29:59.385Z,6.88
2022-11-03T07:30:59.357Z,6.85
2022-11-03T07:31:59.341Z,6.88
2022-11-03T07:32:59.340Z,6.91
2022-11-03T07:33:59.322Z,6.92
2022-11-03T07:34:59.331Z,6.99
2022-11-03T07:36:16.130Z,6.94
2022-11-03T07:37:01.347Z,6.95
2022-11-03T07:37:59.271Z,7.05
2022-11-03T07:38:59.263Z,7.02
2022-11-03T07:39:59.297Z,7.06
2022-11-03T07:40:59.279Z,7.16
2022-11-03T07:41:59.253Z,7.15
2022-11-03T07:42:59.230Z,7.15
2022-11-03T07:43:59.253Z,7.06
2022-11-03T07:44:59.206Z,7.13
2022-11-03T07:45:59.277Z,7.07
2022-11-03T07:46:59.196Z,6.95
2022-11-03T07:48:01.840Z,6.99
2022-11-03T07:49:01.176Z,7.05
2022-11-03T07:49:59.168Z,7.06
2022-11-03T07:50:59.164Z,7.10
2022-11-03T07:51:59.151Z,7.13
2022-11-03T07:52:59.147Z,7.10
2022-11-03T07:53:59.139Z,7.13
2022-11-03T07:54:59.105Z,6.94
2022-11-03T07:55:59.202Z,7.02
2022-11-03T07:56:59.109Z,7.07
2022-11-03T07:57:59.086Z,7.12
2022-11-03T07:58:59.071Z,7.13
2022-11-03T07:59:59.150Z,7.23
2022-11-03T08:00:59.061Z,7.21
2022-11-03T08:01:59.294Z,7.25
2022-11-03T08:02:59.060Z,7.32
2022-11-03T08:03:59.050Z,7.39
2022-11-03T08:04:59.023Z,7.40
2022-11-03T08:05:58.993Z,7.39
2022-11-03T08:06:59.014Z,7.48
2022-11-03T08:07:58.984Z,7.49
2022-11-03T08:08:59.010Z,7.69
2022-11-03T08:09:58.961Z,7.71
2022-11-03T08:10:59.046Z,7.72
2022-11-03T08:11:58.954Z,7.86
2022-11-03T08:12:58.957Z,7.97
2022-11-03T08:13:58.928Z,7.97
2022-11-03T08:14:58.930Z,8.00
2022-11-03T08:15:58.903Z,7.95
2022-11-03T08:16:58.892Z,8.08
2022-11-03T08:17:58.914Z,8.10
2022-11-03T08:18:58.892Z,8.16
2022-11-03T08:19:58.877Z,8.10
2022-11-03T08:20:59.855Z,8.19
2022-11-03T08:21:58.846Z,8.23
2022-11-03T08:23:23.970Z,8.20
2022-11-03T08:24:00.856Z,8.20
2022-11-03T08:24:58.827Z,8.25
2022-11-03T08:25:58.817Z,8.34
2022-11-03T08:26:58.830Z,8.33
2022-11-03T08:27:58.782Z,8.45
2022-11-03T08:29:13.191Z,8.66
2022-11-03T08:29:58.775Z,8.66
2022-11-03T08:31:01.893Z,8.71
2022-11-03T08:31:59.772Z,8.79
2022-11-03T08:32:58.736Z,8.80
2022-11-03T08:33:58.791Z,8.94
2022-11-03T08:34:58.711Z,9.04
2022-11-03T08:35:58.705Z,9.13
2022-11-03T08:36:58.730Z,9.35
2022-11-03T08:37:58.726Z,9.43
2022-11-03T08:38:58.692Z,9.60
2022-11-03T08:39:58.671Z,9.78
2022-11-03T08:40:58.743Z,9.87
2022-11-03T08:41:58.679Z,10.01
2022-11-03T08:42:58.640Z,10.14
2022-11-03T08:43:58.661Z,10.23
2022-11-03T08:44:58.631Z,10.33
2022-11-03T08:46:06.623Z,10.40
2022-11-03T08:47:00.610Z,10.48
2022-11-03T08:47:58.591Z,10.78
2022-11-03T08:48:58.594Z,10.88
2022-11-03T08:49:58.606Z,10.86
2022-11-03T08:50:58.739Z,10.84
2022-11-03T08:51:58.574Z,10.81
2022-11-03T08:52:58.549Z,10.81
2022-11-03T08:53:58.546Z,11.02
2022-11-03T08:54:58.551Z,10.88
2022-11-03T08:55:58.521Z,10.74
2022-11-03T08:56:58.517Z,10.84
2022-11-03T08:57:58.525Z,10.94
2022-11-03T08:58:58.506Z,11.07
2022-11-03T08:59:58.479Z,11.10
2022-11-03T09:00:58.476Z,11.15
2022-11-03T09:01:58.543Z,11.14
2022-11-03T09:02:58.514Z,11.27
2022-11-03T09:03:58.575Z,11.27
2022-11-03T09:04:58.417Z,11.28
2022-11-03T09:05:58.424Z,11.18
2022-11-03T09:06:58.428Z,11.15
2022-11-03T09:11:00.765Z,11.40
2022-11-03T09:11:58.423Z,11.42
2022-11-03T09:12:58.354Z,11.54
2022-11-03T09:13:58.385Z,11.64
2022-11-03T09:14:58.420Z,11.75
2022-11-03T09:15:58.330Z,11.90
2022-11-03T09:16:58.370Z,11.69
2022-11-03T09:17:58.352Z,11.80
2022-11-03T09:18:58.282Z,11.75
2022-11-03T09:19:58.290Z,11.85
2022-11-03T09:20:58.279Z,12.02
2022-11-03T09:21:58.375Z,12.12
2022-11-03T09:22:58.263Z,12.20
2022-11-03T09:23:58.248Z,12.28
2022-11-03T09:24:58.293Z,12.38
2022-11-03T09:25:58.213Z,12.56
2022-11-03T09:27:02.159Z,12.75
2022-11-03T09:27:59.200Z,12.75
2022-11-03T09:28:58.253Z,12.92
2022-11-03T09:30:12.752Z,13.00
2022-11-03T09:31:00.184Z,12.97
2022-11-03T09:31:58.195Z,13.07
2022-11-03T09:32:58.145Z,13.11
2022-11-03T09:33:58.160Z,13.17
2022-11-03T09:34:58.127Z,13.26
2022-11-03T09:35:58.119Z,13.30
2022-11-03T09:36:58.112Z,13.54
2022-11-03T09:37:58.099Z,13.59
2022-11-03T09:38:58.112Z,13.78
2022-11-03T09:39:58.085Z,13.66
2022-11-03T09:40:58.072Z,13.85
2022-11-03T09:41:59.344Z,13.91
2022-11-03T09:42:59.087Z,13.92
2022-11-03T09:43:58.097Z,14.04
2022-11-03T09:44:58.034Z,14.20
2022-11-03T09:45:58.073Z,14.45
2022-11-03T09:46:58.629Z,14.37
2022-11-03T09:47:58.991Z,14.46
2022-11-03T09:48:58.017Z,14.60
2022-11-03T09:49:57.988Z,14.65
2022-11-03T09:50:57.978Z,14.61
2022-11-03T09:51:57.963Z,14.60
2022-11-03T09:52:58.031Z,14.78
2022-11-03T09:53:57.972Z,14.81
2022-11-03T09:54:57.931Z,14.84
2022-11-03T09:55:57.924Z,14.94
2022-11-03T09:56:57.911Z,15.10
2022-11-03T09:57:57.893Z,14.98
2022-11-03T09:58:57.944Z,15.13
2022-11-03T09:59:57.934Z,15.28
2022-11-03T10:00:57.990Z,15.36
2022-11-03T10:01:58.002Z,15.29
2022-11-03T10:02:57.845Z,15.11
2022-11-03T10:03:58.861Z,15.11
2022-11-03T10:04:57.870Z,15.14
2022-11-03T10:05:57.825Z,15.09
2022-11-03T10:06:57.829Z,15.21
2022-11-03T10:07:57.849Z,15.13
2022-11-03T10:08:57.796Z,15.11
2022-11-03T10:09:57.795Z,15.27
2022-11-03T10:10:57.781Z,15.35
2022-11-03T10:11:57.834Z,15.27
2022-11-03T10:12:57.804Z,15.11
2022-11-03T10:13:57.747Z,14.83
2022-11-03T10:14:57.736Z,14.92
2022-11-03T10:15:57.729Z,15.01
2022-11-03T10:16:57.729Z,14.83
2022-11-03T10:17:57.716Z,14.94
2022-11-03T10:18:57.696Z,15.09
2022-11-03T10:19:57.685Z,15.16
2022-11-03T10:20:57.693Z,15.27
2022-11-03T10:21:57.667Z,15.07
2022-11-03T10:22:57.691Z,15.16
2022-11-03T10:23:57.684Z,15.19
2022-11-03T10:24:57.645Z,15.38
2022-11-03T10:25:57.626Z,15.20
2022-11-03T10:26:57.610Z,15.27
2022-11-03T10:27:57.636Z,15.27
2022-11-03T10:28:57.619Z,15.07
2022-11-03T10:29:58.114Z,15.17
2022-11-03T10:31:11.392Z,15.21
2022-11-03T10:31:59.561Z,15.10
2022-11-03T10:32:57.577Z,15.17
2022-11-03T10:33:57.545Z,15.35
2022-11-03T10:34:57.544Z,15.29
2022-11-03T10:35:57.523Z,15.34
2022-11-03T10:36:57.518Z,15.44
2022-11-03T10:37:57.537Z,15.41
2022-11-03T10:38:57.493Z,15.54
2022-11-03T10:39:57.491Z,15.49
2022-11-03T10:40:57.480Z,15.38
2022-11-03T10:41:57.494Z,15.27
2022-11-03T10:42:57.481Z,15.25
2022-11-03T10:43:57.455Z,15.32
2022-11-03T10:44:57.439Z,15.39
2022-11-03T10:45:57.431Z,15.56
2022-11-03T10:46:57.439Z,15.62
2022-11-03T10:48:00.543Z,15.74
2022-11-03T10:48:58.428Z,15.69
2022-11-03T10:49:57.419Z,15.71
2022-11-03T10:50:57.375Z,15.89
2022-11-03T10:51:57.388Z,15.86
2022-11-03T10:52:57.373Z,15.90
2022-11-03T10:53:57.355Z,16.00
2022-11-03T10:54:57.359Z,16.00
2022-11-03T10:55:57.341Z,15.97
2022-11-03T10:56:57.323Z,15.87
2022-11-03T10:57:57.315Z,15.62
2022-11-03T10:59:57.317Z,15.32
2022-11-03T11:00:57.342Z,15.21
2022-11-03T11:01:57.373Z,15.11
2022-11-03T11:02:57.267Z,15.11
2022-11-03T11:03:57.294Z,15.14
2022-11-03T11:04:57.273Z,15.07
2022-11-03T11:05:57.248Z,15.29
2022-11-03T11:06:57.230Z,15.38
2022-11-03T11:07:57.243Z,15.46
2022-11-03T11:08:59.921Z,15.46
2022-11-03T11:09:57.211Z,15.38
2022-11-03T11:10:57.243Z,15.46
2022-11-03T11:11:57.176Z,15.44
2022-11-03T11:12:57.207Z,15.57
2022-11-03T11:13:57.244Z,15.59
2022-11-03T11:14:57.153Z,15.68
2022-11-03T11:15:57.147Z,15.72
2022-11-03T11:16:57.125Z,15.82
2022-11-03T11:17:57.176Z,15.92
2022-11-03T11:18:57.136Z,15.86
2022-11-03T11:19:57.102Z,15.92
2022-11-03T11:20:57.088Z,15.84
2022-11-03T11:21:57.072Z,15.83
2022-11-03T11:22:57.068Z,15.90
2022-11-03T11:23:57.070Z,15.71
2022-11-03T11:24:57.046Z,15.62
2022-11-03T11:25:57.055Z,15.64
2022-11-03T11:26:57.055Z,15.56
2022-11-03T11:27:58.267Z,15.69
2022-11-03T11:28:58.024Z,15.62
2022-11-03T11:29:56.992Z,15.62
2022-11-03T11:30:57.990Z,15.71
2022-11-03T11:31:56.974Z,15.78
2022-11-03T11:32:56.974Z,15.64
2022-11-03T11:33:56.976Z,15.69
2022-11-03T11:34:56.971Z,15.74
2022-11-03T11:35:59.199Z,15.65
2022-11-03T11:36:57.931Z,15.65
2022-11-03T11:37:56.920Z,15.64
2022-11-03T11:38:56.951Z,15.64
2022-11-03T11:39:56.913Z,15.72
2022-11-03T11:40:56.938Z,15.86
2022-11-03T11:41:56.902Z,15.93
2022-11-03T11:42:56.886Z,15.90
2022-11-03T11:43:56.868Z,15.96
2022-11-03T11:44:56.858Z,15.96
2022-11-03T11:45:56.911Z,16.04
2022-11-03T11:46:56.830Z,15.97
2022-11-03T11:47:56.816Z,15.94
2022-11-03T11:48:56.873Z,15.90
2022-11-03T11:49:56.806Z,15.93
2022-11-03T11:50:56.861Z,15.84
2022-11-03T11:51:56.779Z,15.75
2022-11-03T11:52:56.777Z,15.62
2022-11-03T11:54:16.458Z,15.59
2022-11-03T11:54:56.749Z,15.69
2022-11-03T11:55:56.737Z,15.76
2022-11-03T11:56:56.731Z,15.89
2022-11-03T11:57:56.733Z,15.82
2022-11-03T11:58:56.724Z,15.72
2022-11-03T11:59:56.696Z,15.78
2022-11-03T12:00:56.690Z,15.74
2022-11-03T12:01:56.893Z,15.80
2022-11-03T12:02:56.669Z,15.84
2022-11-03T12:03:56.881Z,15.76
2022-11-03T12:04:56.683Z,15.71
2022-11-03T12:05:56.662Z,15.75
2022-11-03T12:06:56.682Z,15.74
2022-11-03T12:07:56.693Z,15.64
2022-11-03T12:08:56.625Z,15.57
2022-11-03T12:09:56.600Z,15.50
2022-11-03T12:10:56.688Z,15.53
2022-11-03T12:11:57.699Z,15.67
2022-11-03T12:12:56.705Z,15.59
2022-11-03T12:13:56.562Z,15.62
2022-11-03T12:14:56.548Z,15.56
2022-11-03T12:15:56.534Z,15.53
2022-11-03T12:16:57.623Z,15.49
2022-11-03T12:17:56.549Z,15.39
2022-11-03T12:18:56.526Z,15.49
2022-11-03T12:19:56.538Z,15.57
2022-11-03T12:20:56.561Z,15.60
2022-11-03T12:21:56.505Z,15.65
2022-11-03T12:22:56.467Z,15.64
2022-11-03T12:23:56.458Z,15.65
2022-11-03T12:24:56.482Z,15.69
2022-11-03T12:25:56.440Z,15.64
2022-11-03T12:26:56.430Z,15.67
2022-11-03T12:27:56.436Z,15.60
2022-11-03T12:28:56.464Z,15.57
2022-11-03T12:29:56.395Z,15.50
2022-11-03T12:30:56.415Z,15.47
2022-11-03T12:31:56.390Z,15.46
2022-11-03T12:32:56.377Z,15.38
2022-11-03T12:33:56.393Z,15.54
2022-11-03T12:34:56.353Z,15.49
2022-11-03T12:35:56.347Z,15.43
2022-11-03T12:36:56.610Z,15.51
2022-11-03T12:37:57.320Z,15.43
2022-11-03T12:38:56.322Z,15.47
2022-11-03T12:39:56.327Z,15.39
2022-11-03T12:40:56.306Z,15.39
2022-11-03T12:41:57.279Z,15.44
2022-11-03T12:42:56.269Z,15.56
2022-11-03T12:43:56.313Z,15.47
2022-11-03T12:44:56.262Z,15.41
2022-11-03T12:45:56.308Z,15.46
2022-11-03T12:46:56.274Z,15.43
2022-11-03T12:47:56.213Z,15.47
2022-11-03T12:48:56.196Z,15.46
2022-11-03T12:49:56.256Z,15.46
2022-11-03T12:50:56.277Z,15.46
2022-11-03T12:51:56.200Z,15.50
2022-11-03T12:52:56.189Z,15.54
2022-11-03T12:53:56.162Z,15.62
2022-11-03T12:54:56.149Z,15.67
2022-11-03T12:55:56.147Z,15.53
2022-11-03T12:56:56.134Z,15.46
2022-11-03T12:57:56.127Z,15.47
2022-11-03T12:58:56.118Z,15.43
2022-11-03T12:59:56.117Z,15.39
2022-11-03T13:01:01.376Z,15.44
2022-11-03T13:01:56.252Z,15.34
2022-11-03T13:02:56.229Z,15.35
2022-11-03T13:03:56.075Z,15.34
2022-11-03T13:04:56.109Z,15.27
2022-11-03T13:05:56.056Z,15.29
2022-11-03T13:06:56.098Z,15.25
2022-11-03T13:07:56.034Z,15.29
2022-11-03T13:08:56.095Z,15.14
2022-11-03T13:09:56.004Z,15.20
2022-11-03T13:10:55.992Z,15.14
2022-11-03T13:11:56.093Z,15.03
2022-11-03T13:12:56.481Z,15.09
2022-11-03T13:13:55.961Z,15.03